• Join FlightAware (Why Join?)
  • Login
  • US Flag 
03:55AM EST


 

Airport Tracker/Info


-or-


 

Live Flight TrackerFlight Track Log ✈ VH-ZFY ✈ 15-Nov-2013 ✈ YSBK / BWU - YSBK / BWU

Flight Track Log - Related Links

Times and Time Zones

All times are in EST time to prevent confusion due to time zone crossing. See the VH-ZFY flight status page for this flight to view local times or setup timezone preferences in your user account.

Time Position Orientation Groundspeed Altitude Reporting Facility
EST Latitude Longitude Course Direction KTS MPH feet Rate Location/Type
10:55PM -33.9293 151.0021 24° Northeast 66 76 700  Level Aus ATC (RADAR)
10:56PM -33.9177 151.0083 24° Northeast 90 104 1,100 600 Climbing Aus ATC (RADAR)
10:56PM -33.9094 150.9914 300° West 95 109 1,500 600 Climbing Aus ATC (RADAR)
10:57PM -33.8987 150.9713 303° West 92 106 1,900 480 Climbing Aus ATC (RADAR)
10:57PM -33.8928 150.9599 302° West 92 106 2,100 540 Climbing Aus ATC (RADAR)
10:59PM -33.8752 150.9226 300° West 91 105 2,900 540 Climbing Aus ATC (RADAR)
10:59PM -33.8807 150.9121 238° Southwest 89 102 3,100 300 Climbing Aus ATC (RADAR)
11:00PM -33.8898 150.9088 196° South 83 96 3,200 180 Climbing Aus ATC (RADAR)
11:00PM -33.9071 150.9077 183° South 97 112 3,300 60 Climbing Aus ATC (RADAR)
11:01PM -33.9231 150.9049 188° South 100 115 3,300 -120 Level Aus ATC (RADAR)
11:01PM -33.9422 150.9029 185° South 105 121 3,200 -120 Descending Aus ATC (RADAR)
11:02PM -33.9657 150.8979 190° South 104 120 3,200  Level Aus ATC (RADAR)
11:03PM -33.9728 150.8963 190° South 104 120 3,200 600 Level Aus ATC (RADAR)
11:04PM -33.9984 150.8887 194° South 86 99 4,000 600 Climbing Aus ATC (RADAR)
11:04PM -34.0097 150.8829 203° Southwest 88 101 4,200 180 Climbing Aus ATC (RADAR)
11:05PM -34.0231 150.8761 203° Southwest 103 119 4,200  Level Aus ATC (RADAR)
11:05PM -34.0372 150.8701 199° South 106 122 4,200  Level Aus ATC (RADAR)
11:06PM -34.0608 150.8621 196° South 105 121 4,200  Level Aus ATC (RADAR)
11:07PM -34.0769 150.8574 194° South 103 119 4,200  Level Aus ATC (RADAR)
11:07PM -34.0985 150.8514 193° South 108 124 4,200 60 Level Aus ATC (RADAR)
11:08PM -34.1135 150.8447 200° South 113 130 4,300 60 Climbing Aus ATC (RADAR)
11:09PM -34.1376 150.8337 201° Southwest 111 128 4,300 -180 Level Aus ATC (RADAR)
11:09PM -34.1501 150.8282 200° South 114 131 4,100  Descending Aus ATC (RADAR)
11:09PM -34.1622 150.8232 199° South 111 128 4,300 180 Climbing Aus ATC (RADAR)
11:10PM -34.1815 150.8161 197° South 108 124 4,300  Level Aus ATC (RADAR)
11:11PM -34.2004 150.8094 196° South 106 122 4,300 -180 Level Aus ATC (RADAR)
11:11PM -34.2140 150.8034 200° South 105 121 4,100 -120 Descending Aus ATC (RADAR)
11:12PM -34.2307 150.7958 201° Southwest 109 125 4,200 60 Climbing Aus ATC (RADAR)
11:13PM -34.2488 150.7887 198° South 103 119 4,200  Level Aus ATC (RADAR)
11:13PM -34.2623 150.7840 196° South 102 117 4,200  Level Aus ATC (RADAR)
11:14PM -34.2957 150.7705 199° South 100 115 4,200  Level Aus ATC (RADAR)
11:15PM -34.3021 150.7677 200° South 98 113 4,200  Level Aus ATC (RADAR)
11:15PM -34.3174 150.7622 196° South 98 113 4,200  Level Aus ATC (RADAR)
11:16PM -34.3131 150.7389 283° West 97 112 4,200 -180 Level Aus ATC (RADAR)
11:17PM -34.3008 150.7386 359° North 103 119 4,000  Descending Aus ATC (RADAR)
11:17PM -34.2767 150.7345 352° North 106 122 4,200 180 Climbing Aus ATC (RADAR)
11:18PM -34.2697 150.7357 North 102 117 4,200  Level Aus ATC (RADAR)
11:18PM -34.2701 150.7552 91° East 100 115 4,200 -120 Level Aus ATC (RADAR)
11:20PM -34.3041 150.7617 171° South 98 113 4,000 -240 Descending Aus ATC (RADAR)
11:20PM -34.3148 150.7628 175° South 94 108 3,800 -120 Descending Aus ATC (RADAR)
11:21PM -34.3319 150.7639 177° South 92 106 3,900 60 Climbing Aus ATC (RADAR)
11:21PM -34.3519 150.7659 175° South 97 112 3,900  Level Aus ATC (RADAR)
11:22PM -34.3674 150.7663 179° South 96 110 3,900  Level Aus ATC (RADAR)
11:23PM -34.3864 150.7699 171° South 93 107 3,900  Level Aus ATC (RADAR)
11:23PM -34.3964 150.7706 176° South 90 104 3,900 -480 Level Aus ATC (RADAR)
11:25PM -34.4366 150.7740 176° South 92 106 3,000 -540 Descending Aus ATC (RADAR)
11:25PM -34.4473 150.7747 177° South 93 107 2,800 -780 Descending Aus ATC (RADAR)
11:26PM -34.4651 150.7759 177° South 100 115 2,200 -780 Descending Aus ATC (RADAR)
11:26PM -34.4806 150.7775 175° South 96 110 1,900 -600 Descending Aus ATC (RADAR)
11:27PM -34.4891 150.7782 176° South 93 107 1,700 120 Descending Aus ATC (RADAR)
11:30PM -34.4391 150.7455 145° Southeast 5,000 180 Climbing Aus ATC (Calculated)
11:30PM -34.4391 150.7455 145° Southeast 5,000 -2,220 Level Aus ATC (Calculated)
11:31PM -34.5392 150.8294 176° South 90 104 2,600 -1,380 Descending Aus ATC (RADAR)
11:32PM -34.5373 150.8494 83° East 80 92 3,100 600 Climbing Aus ATC (RADAR)
11:32PM -34.5360 150.8648 84° East 79 91 3,400 540 Climbing Aus ATC (RADAR)
11:33PM -34.5322 150.8864 78° East 78 90 3,900 540 Climbing Aus ATC (RADAR)
11:34PM -34.5258 150.8984 57° Northeast 78 90 4,200 180 Climbing Aus ATC (RADAR)
11:35PM -34.4944 150.8868 343° North 100 115 4,300 60 Climbing Aus ATC (RADAR)
11:35PM -34.4873 150.8847 347° North 101 116 4,300 -120 Level Aus ATC (RADAR)
11:36PM -34.4715 150.8766 337° Northwest 105 121 4,200 -120 Descending Aus ATC (RADAR)
11:36PM -34.4514 150.8680 341° North 100 115 4,200  Level Aus ATC (RADAR)
11:37PM -34.4334 150.8614 343° North 100 115 4,200  Level Aus ATC (RADAR)
11:38PM -34.4141 150.8523 339° North 100 115 4,200  Level Aus ATC (RADAR)
11:38PM -34.4029 150.8458 334° Northwest 104 120 4,200  Level Aus ATC (RADAR)
11:39PM -34.3878 150.8401 343° North 96 110 4,200 -60 Level Aus ATC (RADAR)
11:40PM -34.3551 150.8240 338° Northwest 110 127 4,100  Descending Aus ATC (RADAR)
11:40PM -34.3429 150.8197 344° North 110 127 4,200  Climbing Aus ATC (RADAR)
11:41PM -34.3258 150.8091 333° Northwest 116 133 4,100 -120 Descending Aus ATC (RADAR)
11:42PM -34.3015 150.7942 333° Northwest 115 132 4,100  Level Aus ATC (RADAR)
11:42PM -34.2878 150.7844 329° Northwest 114 131 4,100  Level Aus ATC (RADAR)
11:43PM -34.2714 150.7758 337° Northwest 108 124 4,100  Level Aus ATC (RADAR)
11:43PM -34.2537 150.7742 356° North 110 127 4,100  Level Aus ATC (RADAR)
11:45PM -34.2140 150.7616 345° North 105 121 4,100  Level Aus ATC (RADAR)
11:45PM -34.1973 150.7537 339° North 109 125 4,100 -120 Level Aus ATC (RADAR)
11:46PM -34.1857 150.7480 338° Northwest 109 125 4,000 -420 Descending Aus ATC (RADAR)
11:46PM -34.1676 150.7418 344° North 116 133 3,700 -420 Descending Aus ATC (RADAR)
11:47PM -34.1486 150.7320 337° Northwest 109 125 3,500 -180 Descending Aus ATC (RADAR)
11:48PM -34.1326 150.7242 338° Northwest 107 123 3,500  Level Aus ATC (RADAR)
11:49PM -34.1093 150.7166 345° North 101 116 3,500  Level Aus ATC (RADAR)
11:49PM -34.1008 150.7119 335° Northwest 101 116 3,500 -120 Level Aus ATC (RADAR)
11:50PM -34.0651 150.6959 340° North 109 125 3,400 -300 Descending Aus ATC (RADAR)
11:50PM -34.0529 150.7003 17° North 106 122 3,100 -720 Descending Aus ATC (RADAR)
11:51PM -34.0465 150.7082 45° Northeast 99 114 2,900 -600 Descending Aus ATC (RADAR)
11:53PM -34.0309 150.7441 62° Northeast  Level FlightAware Approximate
12:00AM -33.9659 150.8932 62° Northeast  Level FlightAware Approximate
12:01AM -33.9566 150.9145 62° Northeast  Level FlightAware Approximate
12:02AM -33.9473 150.9358 62° Northeast  Level FlightAware Approximate
12:03AM -33.9380 150.9571 62° Northeast  Level FlightAware Approximate
12:04AM -33.9288 150.9784 90° East  Level Estimated
12:05AM -33.9244 150.9884 90° East  Level FlightAware Approximate
12:06AM -33.9244 150.9883 90° East  Level Estimated
12:07AM -33.9244 150.9883 90° East  Level Estimated
12:08AM -33.9244 150.9883 90° East  Level Estimated
12:09AM -33.9244 150.9883 90° East  Level Estimated
12:10AM -33.9244 150.9883 90° East  Level Estimated
12:11AM -33.9244 150.9883 90° East  Level Estimated
12:12AM -33.9244 150.9883 90° East  Level Estimated
12:13AM -33.9244 150.9883 90° East  Level Estimated
12:14AM -33.9244 150.9883 90° East  Level Estimated
12:15AM -33.9244 150.9883 90° East  Level Estimated
12:16AM -33.9244 150.9883 90° East  Level Estimated
12:17AM -33.9244 150.9883 90° East  Level Estimated
12:18AM -33.9244 150.9883 90° East  Level Estimated
12:19AM -33.9244 150.9883 90° East  Level Estimated
12:20AM -33.9244 150.9883 90° East  Level Estimated
12:21AM -33.9244 150.9883 90° East  Level Estimated
12:22AM -33.9244 150.9883 90° East  Level Estimated
12:23AM -33.9244 150.9883 90° East  Level Estimated
12:24AM -33.9244 150.9883 90° East  Level Estimated
12:25AM -33.9244 150.9883 90° East  Level Estimated
12:26AM -33.9244 150.9883 90° East  Level Estimated
12:27AM -33.9244 150.9883 90° East  Level Estimated
12:28AM -33.9244 150.9883 90° East  Level Estimated
12:29AM -33.9244 150.9883 90° East  Level Estimated
12:30AM -33.9244 150.9883 90° East  Level Estimated
12:31AM -33.9244 150.9883 90° East  Level Estimated
12:32AM -33.9244 150.9883 90° East  Level Estimated
12:33AM -33.9244 150.9883 90° East  Level Estimated
12:34AM -33.9244 150.9883 90° East  Level Estimated
12:35AM -33.9244 150.9883 90° East  Level Estimated
12:36AM -33.9244 150.9883 90° East  Level Estimated
12:37AM -33.9244 150.9883 90° East  Level Estimated
12:38AM -33.9244 150.9883 90° East  Level Estimated
12:39AM -33.9244 150.9883 90° East  Level Estimated
12:40AM -33.9244 150.9883 90° East  Level Estimated
12:41AM -33.9244 150.9883 90° East  Level Estimated
12:42AM -33.9244 150.9883 90° East  Level Estimated